createdAt,value
2022-10-04T00:00:42.101Z,0.00
2022-10-04T00:01:42.187Z,0.00
2022-10-04T00:02:42.030Z,0.00
2022-10-04T00:03:41.988Z,0.00
2022-10-04T00:04:41.980Z,0.00
2022-10-04T00:05:41.958Z,0.00
2022-10-04T00:06:41.958Z,0.00
2022-10-04T00:07:41.933Z,0.00
2022-10-04T00:08:41.927Z,0.00
2022-10-04T00:09:41.916Z,0.00
2022-10-04T00:10:41.910Z,0.00
2022-10-04T00:11:42.020Z,0.00
2022-10-04T00:12:41.892Z,0.00
2022-10-04T00:13:41.916Z,0.00
2022-10-04T00:14:41.874Z,0.00
2022-10-04T00:15:41.871Z,0.00
2022-10-04T00:16:41.920Z,0.00
2022-10-04T00:17:41.842Z,0.00
2022-10-04T00:18:41.834Z,0.00
2022-10-04T00:19:41.828Z,0.00
2022-10-04T00:20:41.812Z,0.00
2022-10-04T00:21:41.960Z,0.00
2022-10-04T00:22:41.820Z,0.00
2022-10-04T00:23:41.805Z,0.00
2022-10-04T00:24:41.775Z,0.00
2022-10-04T00:25:41.793Z,0.00
2022-10-04T00:26:41.783Z,0.00
2022-10-04T00:27:41.740Z,0.00
2022-10-04T00:28:41.731Z,0.00
2022-10-04T00:29:41.759Z,0.00
2022-10-04T00:30:41.731Z,0.00
2022-10-04T00:31:42.011Z,0.00
2022-10-04T00:32:41.695Z,0.00
2022-10-04T00:33:41.692Z,0.00
2022-10-04T00:34:41.672Z,0.00
2022-10-04T00:35:41.672Z,0.00
2022-10-04T00:36:41.678Z,0.00
2022-10-04T00:37:41.645Z,0.00
2022-10-04T00:38:41.641Z,0.00
2022-10-04T00:39:41.629Z,0.00
2022-10-04T00:40:41.675Z,0.00
2022-10-04T00:41:41.882Z,0.00
2022-10-04T00:42:41.616Z,0.00
2022-10-04T00:43:41.590Z,0.00
2022-10-04T00:44:41.589Z,0.00
2022-10-04T00:45:41.574Z,0.00
2022-10-04T00:46:41.576Z,0.00
2022-10-04T00:47:41.551Z,0.00
2022-10-04T00:48:41.547Z,0.00
2022-10-04T00:49:41.546Z,0.00
2022-10-04T00:50:41.528Z,0.00
2022-10-04T00:51:41.809Z,0.00
2022-10-04T00:52:41.509Z,0.00
2022-10-04T00:53:41.499Z,0.00
2022-10-04T00:54:41.517Z,0.00
2022-10-04T00:55:41.476Z,0.00
2022-10-04T00:56:42.483Z,0.00
2022-10-04T00:57:41.468Z,0.00
2022-10-04T00:58:41.453Z,0.00
2022-10-04T00:59:41.458Z,0.00
2022-10-04T01:00:41.510Z,0.00
2022-10-04T01:01:41.751Z,0.00
2022-10-04T01:02:41.422Z,0.00
2022-10-04T01:03:41.406Z,0.00
2022-10-04T01:04:41.496Z,0.00
2022-10-04T01:05:41.405Z,0.00
2022-10-04T01:06:41.377Z,0.00
2022-10-04T01:07:41.372Z,0.00
2022-10-04T01:08:41.360Z,0.00
2022-10-04T01:09:41.354Z,0.00
2022-10-04T01:10:41.351Z,0.00
2022-10-04T01:11:41.596Z,0.00
2022-10-04T01:12:41.331Z,0.00
2022-10-04T01:13:41.314Z,0.00
2022-10-04T01:14:41.300Z,0.00
2022-10-04T01:15:41.348Z,0.00
2022-10-04T01:16:41.288Z,0.00
2022-10-04T01:17:41.272Z,0.00
2022-10-04T01:18:41.261Z,0.00
2022-10-04T01:19:41.258Z,0.00
2022-10-04T01:20:41.256Z,0.00
2022-10-04T01:21:41.479Z,0.00
2022-10-04T01:22:41.228Z,0.00
2022-10-04T01:23:41.209Z,0.00
2022-10-04T01:24:42.222Z,0.00
2022-10-04T01:25:41.212Z,0.00
2022-10-04T01:26:41.189Z,0.00
2022-10-04T01:27:41.179Z,0.00
2022-10-04T01:28:41.172Z,0.00
2022-10-04T01:29:41.157Z,0.00
2022-10-04T01:30:41.162Z,0.00
2022-10-04T01:31:41.432Z,0.00
2022-10-04T01:32:41.129Z,0.00
2022-10-04T01:33:41.125Z,0.00
2022-10-04T01:34:41.110Z,0.00
2022-10-04T01:35:41.109Z,0.00
2022-10-04T01:36:41.096Z,0.00
2022-10-04T01:37:41.082Z,0.00
2022-10-04T01:38:41.086Z,0.00
2022-10-04T01:39:41.080Z,0.00
2022-10-04T01:40:41.067Z,0.00
2022-10-04T01:41:41.308Z,0.00
2022-10-04T01:42:41.039Z,0.00
2022-10-04T01:43:41.024Z,0.00
2022-10-04T01:44:41.010Z,0.00
2022-10-04T01:45:41.011Z,0.00
2022-10-04T01:46:41.027Z,0.00
2022-10-04T01:47:40.982Z,0.00
2022-10-04T01:48:40.971Z,0.00
2022-10-04T01:49:40.961Z,0.00
2022-10-04T01:50:40.965Z,0.00
2022-10-04T01:51:41.165Z,0.00
2022-10-04T01:52:40.937Z,0.00
2022-10-04T01:53:40.928Z,0.00
2022-10-04T01:54:40.913Z,0.00
2022-10-04T01:55:40.914Z,0.00
2022-10-04T01:56:40.897Z,0.00
2022-10-04T01:57:40.917Z,0.00
2022-10-04T01:58:40.888Z,0.00
2022-10-04T01:59:40.870Z,0.00
2022-10-04T02:00:40.867Z,0.00
2022-10-04T02:01:41.113Z,0.00
2022-10-04T02:02:40.839Z,0.00
2022-10-04T02:03:40.864Z,0.00
2022-10-04T02:04:40.858Z,0.00
2022-10-04T02:05:40.847Z,0.00
2022-10-04T02:06:40.816Z,0.00
2022-10-04T02:07:40.799Z,0.00
2022-10-04T02:08:40.895Z,0.00
2022-10-04T02:09:40.776Z,0.00
2022-10-04T02:10:43.583Z,0.00
2022-10-04T02:11:41.976Z,0.00
2022-10-04T02:12:40.754Z,0.00
2022-10-04T02:13:40.738Z,0.00
2022-10-04T02:14:40.722Z,0.00
2022-10-04T02:15:40.770Z,0.00
2022-10-04T02:16:40.730Z,0.00
2022-10-04T02:17:40.697Z,0.00
2022-10-04T02:18:40.694Z,0.00
2022-10-04T02:19:40.680Z,0.00
2022-10-04T02:20:40.759Z,0.00
2022-10-04T02:21:40.962Z,0.00
2022-10-04T02:22:40.659Z,0.00
2022-10-04T02:23:40.641Z,0.00
2022-10-04T02:24:40.633Z,0.00
2022-10-04T02:25:43.905Z,0.00
2022-10-04T02:26:40.619Z,0.00
2022-10-04T02:27:40.607Z,0.00
2022-10-04T02:28:40.624Z,0.00
2022-10-04T02:29:40.587Z,0.00
2022-10-04T02:30:40.682Z,0.00
2022-10-04T02:31:40.999Z,0.00
2022-10-04T02:32:40.557Z,0.00
2022-10-04T02:33:40.549Z,0.00
2022-10-04T02:34:40.557Z,0.00
2022-10-04T02:35:40.540Z,0.00
2022-10-04T02:36:40.522Z,0.00
2022-10-04T02:37:40.514Z,0.00
2022-10-04T02:38:40.505Z,0.00
2022-10-04T02:39:40.502Z,0.00
2022-10-04T02:40:40.556Z,0.00
2022-10-04T02:41:40.765Z,0.00
2022-10-04T02:42:41.476Z,0.00
2022-10-04T02:43:40.462Z,0.00
2022-10-04T02:44:40.453Z,0.00
2022-10-04T02:45:40.458Z,0.00
2022-10-04T02:46:40.467Z,0.00
2022-10-04T02:47:40.422Z,0.00
2022-10-04T02:48:40.410Z,0.00
2022-10-04T02:49:40.414Z,0.00
2022-10-04T02:50:40.414Z,0.00
2022-10-04T02:51:40.720Z,0.00
2022-10-04T02:52:40.375Z,0.00
2022-10-04T02:53:40.367Z,0.00
2022-10-04T02:54:40.367Z,0.00
2022-10-04T02:55:40.360Z,0.00
2022-10-04T02:56:40.331Z,0.00
2022-10-04T02:57:40.323Z,0.00
2022-10-04T02:58:40.310Z,0.00
2022-10-04T02:59:40.297Z,0.00
2022-10-04T03:00:40.323Z,0.00
2022-10-04T03:01:40.510Z,0.00
2022-10-04T03:02:40.346Z,0.00
2022-10-04T03:03:40.344Z,0.00
2022-10-04T03:04:40.257Z,0.00
2022-10-04T03:05:40.246Z,0.00
2022-10-04T03:06:40.246Z,0.00
2022-10-04T03:07:40.228Z,0.00
2022-10-04T03:08:40.216Z,0.00
2022-10-04T03:09:40.205Z,0.00
2022-10-04T03:10:40.194Z,0.00
2022-10-04T03:11:40.495Z,0.00
2022-10-04T03:12:40.183Z,0.00
2022-10-04T03:13:40.164Z,0.00
2022-10-04T03:14:40.155Z,0.00
2022-10-04T03:15:40.184Z,0.00
2022-10-04T03:16:40.153Z,0.00
2022-10-04T03:17:40.124Z,0.00
2022-10-04T03:18:40.118Z,0.00
2022-10-04T03:19:40.108Z,0.00
2022-10-04T03:20:40.100Z,0.00
2022-10-04T03:21:40.406Z,0.00
2022-10-04T03:22:43.713Z,0.00
2022-10-04T03:23:41.068Z,0.00
2022-10-04T03:24:40.058Z,0.00
2022-10-04T03:25:41.056Z,0.00
2022-10-04T03:26:40.063Z,0.00
2022-10-04T03:27:40.038Z,0.00
2022-10-04T03:28:40.039Z,0.00
2022-10-04T03:29:40.023Z,0.00
2022-10-04T03:30:40.019Z,0.00
2022-10-04T03:31:40.306Z,0.00
2022-10-04T03:32:39.996Z,0.00
2022-10-04T03:33:39.984Z,0.00
2022-10-04T03:34:39.978Z,0.00
2022-10-04T03:35:39.973Z,0.00
2022-10-04T03:36:39.955Z,0.00
2022-10-04T03:37:39.946Z,0.00
2022-10-04T03:38:39.933Z,0.00
2022-10-04T03:39:39.928Z,0.00
2022-10-04T03:40:39.929Z,0.00
2022-10-04T03:41:40.269Z,0.00
2022-10-04T03:42:39.897Z,0.00
2022-10-04T03:43:39.886Z,0.00
2022-10-04T03:44:39.874Z,0.00
2022-10-04T03:45:39.901Z,0.00
2022-10-04T03:47:11.772Z,0.00
2022-10-04T03:47:39.848Z,0.00
2022-10-04T03:48:39.839Z,0.00
2022-10-04T03:49:39.830Z,0.00
2022-10-04T03:50:39.818Z,0.00
2022-10-04T03:51:40.075Z,0.00
2022-10-04T03:52:39.795Z,0.00
2022-10-04T03:53:39.787Z,0.00
2022-10-04T03:54:39.777Z,0.00
2022-10-04T03:55:39.773Z,0.00
2022-10-04T03:56:39.773Z,0.00
2022-10-04T03:57:39.752Z,0.00
2022-10-04T03:58:39.740Z,0.00
2022-10-04T03:59:39.731Z,0.00
2022-10-04T04:00:39.725Z,0.00
2022-10-04T04:01:40.082Z,0.00
2022-10-04T04:02:45.051Z,0.00
2022-10-04T04:03:41.693Z,0.00
2022-10-04T04:04:39.681Z,0.00
2022-10-04T04:05:39.669Z,0.00
2022-10-04T04:06:39.669Z,0.00
2022-10-04T04:07:39.651Z,0.00
2022-10-04T04:08:39.644Z,0.00
2022-10-04T04:09:39.638Z,0.00
2022-10-04T04:10:39.665Z,0.00
2022-10-04T04:11:39.764Z,0.00
2022-10-04T04:12:39.610Z,0.00
2022-10-04T04:13:39.599Z,0.00
2022-10-04T04:14:39.586Z,0.00
2022-10-04T04:15:39.578Z,0.00
2022-10-04T04:16:39.752Z,0.00
2022-10-04T04:17:39.547Z,0.00
2022-10-04T04:18:40.548Z,0.00
2022-10-04T04:19:39.548Z,0.00
2022-10-04T04:20:39.527Z,0.00
2022-10-04T04:21:39.851Z,0.00
2022-10-04T04:22:39.510Z,0.00
2022-10-04T04:23:39.499Z,0.00
2022-10-04T04:24:39.488Z,0.00
2022-10-04T04:25:39.482Z,0.00
2022-10-04T04:26:39.481Z,0.00
2022-10-04T04:27:39.460Z,0.00
2022-10-04T04:28:39.528Z,0.00
2022-10-04T04:29:39.457Z,0.00
2022-10-04T04:30:39.436Z,0.00
2022-10-04T04:31:39.531Z,0.00
2022-10-04T04:32:39.499Z,0.00
2022-10-04T04:33:39.405Z,0.00
2022-10-04T04:34:39.392Z,0.00
2022-10-04T04:35:39.393Z,0.00
2022-10-04T04:36:39.381Z,0.00
2022-10-04T04:37:39.365Z,0.00
2022-10-04T04:38:39.362Z,0.00
2022-10-04T04:39:39.346Z,0.00
2022-10-04T04:40:39.334Z,0.00
2022-10-04T04:41:39.573Z,0.00
2022-10-04T04:42:39.318Z,0.00
2022-10-04T04:43:39.302Z,0.00
2022-10-04T04:44:39.321Z,0.00
2022-10-04T04:45:39.344Z,0.00
2022-10-04T04:46:39.525Z,0.00
2022-10-04T04:47:39.285Z,0.00
2022-10-04T04:48:39.286Z,0.00
2022-10-04T04:49:39.244Z,0.00
2022-10-04T04:50:39.245Z,0.00
2022-10-04T04:51:39.354Z,0.00
2022-10-04T04:52:39.222Z,0.00
2022-10-04T04:53:39.207Z,0.00
2022-10-04T04:54:39.211Z,0.00
2022-10-04T04:56:01.865Z,0.00
2022-10-04T04:56:41.192Z,0.00
2022-10-04T04:57:39.173Z,0.00
2022-10-04T04:58:39.179Z,0.00
2022-10-04T04:59:39.156Z,0.00
2022-10-04T05:00:39.265Z,0.00
2022-10-04T05:01:39.141Z,0.00
2022-10-04T05:02:39.130Z,4.00
2022-10-04T05:03:39.114Z,0.00
2022-10-04T05:04:39.110Z,0.00
2022-10-04T05:05:39.090Z,4.00
2022-10-04T05:06:39.092Z,4.00
2022-10-04T05:07:39.073Z,4.00
2022-10-04T05:08:41.553Z,4.00
2022-10-04T05:09:40.054Z,4.00
2022-10-04T05:10:39.047Z,4.00
2022-10-04T05:11:39.048Z,4.00
2022-10-04T05:12:39.026Z,8.00
2022-10-04T05:13:39.021Z,8.00
2022-10-04T05:14:39.004Z,8.00
2022-10-04T05:15:38.997Z,12.00
2022-10-04T05:16:39.085Z,12.00
2022-10-04T05:17:38.983Z,12.00
2022-10-04T05:18:38.968Z,16.00
2022-10-04T05:19:38.971Z,16.00
2022-10-04T05:20:38.950Z,20.00
2022-10-04T05:21:42.767Z,24.00
2022-10-04T05:22:39.937Z,28.00
2022-10-04T05:23:38.925Z,32.00
2022-10-04T05:24:38.917Z,32.00
2022-10-04T05:25:38.907Z,40.00
2022-10-04T05:26:38.927Z,44.00
2022-10-04T05:27:39.886Z,52.00
2022-10-04T05:28:38.967Z,56.00
2022-10-04T05:29:38.864Z,60.00
2022-10-04T05:30:38.855Z,64.00
2022-10-04T05:31:38.861Z,72.00
2022-10-04T05:32:38.835Z,76.00
2022-10-04T05:33:38.825Z,84.00
2022-10-04T05:34:38.815Z,92.00
2022-10-04T05:35:38.805Z,108.00
2022-10-04T05:36:38.806Z,116.00
2022-10-04T05:37:38.787Z,124.00
2022-10-04T05:38:38.776Z,136.00
2022-10-04T05:39:38.766Z,144.00
2022-10-04T05:40:38.758Z,156.00
2022-10-04T05:41:38.765Z,172.00
2022-10-04T05:42:38.741Z,180.00
2022-10-04T05:43:38.723Z,192.00
2022-10-04T05:44:38.718Z,200.00
2022-10-04T05:45:38.749Z,208.00
2022-10-04T05:46:43.303Z,220.00
2022-10-04T05:47:40.690Z,228.00
2022-10-04T05:48:38.686Z,240.00
2022-10-04T05:49:38.673Z,248.00
2022-10-04T05:50:38.663Z,256.00
2022-10-04T05:51:38.661Z,264.00
2022-10-04T05:52:38.645Z,272.00
2022-10-04T05:53:38.637Z,276.00
2022-10-04T05:54:38.623Z,288.00
2022-10-04T05:55:38.613Z,300.00
2022-10-04T05:56:38.612Z,312.00
2022-10-04T05:57:38.654Z,320.00
2022-10-04T05:58:38.602Z,336.00
2022-10-04T05:59:38.569Z,348.00
2022-10-04T06:00:38.562Z,360.00
2022-10-04T06:01:38.640Z,376.00
2022-10-04T06:02:38.615Z,384.00
2022-10-04T06:03:38.531Z,404.00
2022-10-04T06:04:38.526Z,420.00
2022-10-04T06:05:38.514Z,436.00
2022-10-04T06:06:38.512Z,452.00
2022-10-04T06:07:38.491Z,464.00
2022-10-04T06:08:38.484Z,488.00
2022-10-04T06:09:38.474Z,500.00
2022-10-04T06:10:38.471Z,512.00
2022-10-04T06:11:38.466Z,528.00
2022-10-04T06:12:42.451Z,548.00
2022-10-04T06:13:40.433Z,576.00
2022-10-04T06:14:38.420Z,592.00
2022-10-04T06:15:39.415Z,612.00
2022-10-04T06:16:38.480Z,616.00
2022-10-04T06:17:38.396Z,628.00
2022-10-04T06:18:38.388Z,632.00
2022-10-04T06:19:38.379Z,640.00
2022-10-04T06:20:38.391Z,648.00
2022-10-04T06:21:38.372Z,668.00
2022-10-04T06:22:38.348Z,692.00
2022-10-04T06:23:38.340Z,712.00
2022-10-04T06:24:38.327Z,728.00
2022-10-04T06:25:38.322Z,748.00
2022-10-04T06:26:38.322Z,768.00
2022-10-04T06:27:38.296Z,772.00
2022-10-04T06:28:38.319Z,780.00
2022-10-04T06:29:38.313Z,800.00
2022-10-04T06:30:38.305Z,840.00
2022-10-04T06:31:38.274Z,880.00
2022-10-04T06:32:38.254Z,896.00
2022-10-04T06:33:38.251Z,916.00
2022-10-04T06:34:38.248Z,936.00
2022-10-04T06:35:38.228Z,952.00
2022-10-04T06:36:38.229Z,980.00
2022-10-04T06:37:38.207Z,1016.00
2022-10-04T06:38:38.195Z,1040.00
2022-10-04T06:39:38.183Z,1068.00
2022-10-04T06:40:38.180Z,1092.00
2022-10-04T06:41:38.181Z,1124.00
2022-10-04T06:42:38.155Z,1172.00
2022-10-04T06:43:38.147Z,1216.00
2022-10-04T06:44:38.134Z,1252.00
2022-10-04T06:45:38.211Z,1292.00
2022-10-04T06:46:38.123Z,1328.00
2022-10-04T06:47:38.109Z,1356.00
2022-10-04T06:48:38.097Z,1364.00
2022-10-04T06:49:38.088Z,1404.00
2022-10-04T06:50:38.073Z,1424.00
2022-10-04T06:51:38.083Z,1428.00
2022-10-04T06:52:38.056Z,1444.00
2022-10-04T06:53:38.047Z,1432.00
2022-10-04T06:54:38.037Z,1428.00
2022-10-04T06:55:38.028Z,1468.00
2022-10-04T06:56:38.038Z,1520.00
2022-10-04T06:57:38.010Z,1632.00
2022-10-04T06:58:38.001Z,1824.00
2022-10-04T06:59:37.990Z,1944.00
2022-10-04T07:00:37.977Z,1928.00
2022-10-04T07:01:38.089Z,1780.00
2022-10-04T07:02:38.025Z,1804.00
2022-10-04T07:03:37.950Z,1864.00
2022-10-04T07:05:06.317Z,1840.00
2022-10-04T07:05:39.935Z,1836.00
2022-10-04T07:06:37.925Z,1876.00
2022-10-04T07:07:37.920Z,1900.00
2022-10-04T07:08:37.897Z,1812.00
2022-10-04T07:09:37.901Z,1824.00
2022-10-04T07:10:37.879Z,1808.00
2022-10-04T07:11:37.879Z,1788.00
2022-10-04T07:12:37.857Z,1844.00
2022-10-04T07:13:37.849Z,1928.00
2022-10-04T07:14:37.838Z,1928.00
2022-10-04T07:15:37.878Z,1876.00
2022-10-04T07:16:37.835Z,1824.00
2022-10-04T07:17:37.813Z,1804.00
2022-10-04T07:18:37.807Z,1836.00
2022-10-04T07:19:37.795Z,1864.00
2022-10-04T07:20:37.773Z,1900.00
2022-10-04T07:21:38.776Z,1940.00
2022-10-04T07:22:38.762Z,1992.00
2022-10-04T07:23:37.756Z,1908.00
2022-10-04T07:24:37.743Z,1848.00
2022-10-04T07:25:37.735Z,1856.00
2022-10-04T07:26:37.735Z,1824.00
2022-10-04T07:27:37.711Z,1800.00
2022-10-04T07:28:37.875Z,1916.00
2022-10-04T07:29:41.748Z,1988.00
2022-10-04T07:30:38.735Z,2008.00
2022-10-04T07:31:37.685Z,2072.00
2022-10-04T07:32:37.665Z,2376.00
2022-10-04T07:33:37.657Z,2336.00
2022-10-04T07:34:37.650Z,2320.00
2022-10-04T07:35:37.635Z,2476.00
2022-10-04T07:36:37.635Z,2680.00
2022-10-04T07:37:37.617Z,2832.00
2022-10-04T07:38:37.610Z,2892.00
2022-10-04T07:39:37.594Z,2960.00
2022-10-04T07:40:37.590Z,2908.00
2022-10-04T07:41:37.595Z,2852.00
2022-10-04T07:42:37.584Z,2876.00
2022-10-04T07:43:37.584Z,2864.00
2022-10-04T07:44:37.558Z,2924.00
2022-10-04T07:45:37.545Z,2924.00
2022-10-04T07:46:37.571Z,2772.00
2022-10-04T07:47:37.511Z,2560.00
2022-10-04T07:48:38.514Z,2724.00
2022-10-04T07:49:37.504Z,2480.00
2022-10-04T07:50:37.494Z,2560.00
2022-10-04T07:51:37.512Z,2672.00
2022-10-04T07:52:37.474Z,2580.00
2022-10-04T07:53:37.462Z,2488.00
2022-10-04T07:54:37.453Z,2468.00
2022-10-04T07:55:37.453Z,2676.00
2022-10-04T07:56:37.445Z,2788.00
2022-10-04T07:57:37.423Z,2812.00
2022-10-04T07:58:39.308Z,3328.00
2022-10-04T07:59:37.462Z,4868.00
2022-10-04T08:00:37.386Z,4724.00
2022-10-04T08:01:37.433Z,3696.00
2022-10-04T08:02:37.510Z,4416.00
2022-10-04T08:03:37.416Z,4136.00
2022-10-04T08:04:37.352Z,5028.00
2022-10-04T08:05:37.354Z,4848.00
2022-10-04T08:06:38.342Z,3628.00
2022-10-04T08:07:37.324Z,3556.00
2022-10-04T08:08:37.329Z,3428.00
2022-10-04T08:09:37.304Z,4220.00
2022-10-04T08:10:37.289Z,3784.00
2022-10-04T08:11:37.292Z,3204.00
2022-10-04T08:12:37.283Z,3548.00
2022-10-04T08:13:37.265Z,3760.00
2022-10-04T08:14:37.254Z,4736.00
2022-10-04T08:15:37.293Z,4496.00
2022-10-04T08:16:37.241Z,3048.00
2022-10-04T08:17:37.225Z,2448.00
2022-10-04T08:18:37.215Z,2296.00
2022-10-04T08:19:37.201Z,2548.00
2022-10-04T08:20:37.200Z,3224.00
2022-10-04T08:21:37.190Z,3896.00
2022-10-04T08:22:37.172Z,5004.00
2022-10-04T08:23:37.185Z,5236.00
2022-10-04T08:24:37.158Z,6848.00
2022-10-04T08:25:37.148Z,10924.00
2022-10-04T08:26:37.182Z,8012.00
2022-10-04T08:27:37.124Z,5004.00
2022-10-04T08:28:37.239Z,4780.00
2022-10-04T08:29:37.108Z,4732.00
2022-10-04T08:30:37.087Z,4904.00
2022-10-04T08:31:37.095Z,5408.00
2022-10-04T08:32:37.091Z,5272.00
2022-10-04T08:33:37.059Z,4904.00
2022-10-04T08:34:37.050Z,4820.00
2022-10-04T08:35:37.040Z,5128.00
2022-10-04T08:36:37.046Z,4828.00
2022-10-04T08:37:37.020Z,4788.00
2022-10-04T08:38:37.013Z,5660.00
2022-10-04T08:39:37.000Z,5540.00
2022-10-04T08:40:36.984Z,3748.00
2022-10-04T08:41:36.989Z,4204.00
2022-10-04T08:42:36.970Z,3864.00
2022-10-04T08:43:36.956Z,3776.00
2022-10-04T08:44:36.953Z,3744.00
2022-10-04T08:45:36.943Z,4060.00
2022-10-04T08:46:36.963Z,4164.00
2022-10-04T08:47:36.917Z,4232.00
2022-10-04T08:48:36.908Z,4372.00
2022-10-04T08:49:36.898Z,4584.00
2022-10-04T08:50:36.885Z,4584.00
2022-10-04T08:51:37.021Z,4548.00
2022-10-04T08:52:36.876Z,4568.00
2022-10-04T08:53:36.854Z,4720.00
2022-10-04T08:54:36.848Z,5028.00
2022-10-04T08:55:36.840Z,4992.00
2022-10-04T08:56:36.837Z,4960.00
2022-10-04T08:57:36.813Z,4948.00
2022-10-04T08:58:36.806Z,5108.00
2022-10-04T08:59:36.804Z,5488.00
2022-10-04T09:00:36.781Z,5256.00
2022-10-04T09:01:36.863Z,5408.00
2022-10-04T09:02:37.801Z,6072.00
2022-10-04T09:03:36.762Z,8024.00
2022-10-04T09:04:36.749Z,8780.00
2022-10-04T09:05:36.735Z,8092.00
2022-10-04T09:06:36.783Z,9836.00
2022-10-04T09:07:36.710Z,10772.00
2022-10-04T09:08:36.704Z,14328.00
2022-10-04T09:09:36.690Z,7416.00
2022-10-04T09:10:36.690Z,7556.00
2022-10-04T09:11:36.698Z,13732.00
2022-10-04T09:12:36.669Z,7724.00
2022-10-04T09:13:36.654Z,6116.00
2022-10-04T09:14:36.640Z,6068.00
2022-10-04T09:15:36.670Z,5592.00
2022-10-04T09:16:36.641Z,5568.00
2022-10-04T09:17:36.613Z,5196.00
2022-10-04T09:18:36.615Z,4980.00
2022-10-04T09:19:36.589Z,5008.00
2022-10-04T09:20:39.202Z,4984.00
2022-10-04T09:21:37.573Z,5092.00
2022-10-04T09:22:36.552Z,5056.00
2022-10-04T09:23:36.544Z,5108.00
2022-10-04T09:24:36.536Z,5216.00
2022-10-04T09:25:36.525Z,4684.00
2022-10-04T09:26:36.523Z,4604.00
2022-10-04T09:27:54.635Z,4480.00
2022-10-04T09:28:38.589Z,4352.00
2022-10-04T09:29:36.482Z,4396.00
2022-10-04T09:30:36.469Z,4696.00
2022-10-04T09:31:36.498Z,4880.00
2022-10-04T09:32:36.446Z,4324.00
2022-10-04T09:33:36.436Z,4632.00
2022-10-04T09:34:37.597Z,4496.00
2022-10-04T09:35:37.417Z,4080.00
2022-10-04T09:36:36.421Z,4432.00
2022-10-04T09:37:36.405Z,5028.00
2022-10-04T09:38:36.391Z,4936.00
2022-10-04T09:39:36.374Z,4792.00
2022-10-04T09:40:36.354Z,4744.00
2022-10-04T09:41:37.366Z,4636.00
2022-10-04T09:42:36.344Z,4520.00
2022-10-04T09:43:36.333Z,4572.00
2022-10-04T09:44:36.343Z,4632.00
2022-10-04T09:45:36.319Z,4640.00
2022-10-04T09:46:36.345Z,4620.00
2022-10-04T09:48:08.197Z,4576.00
2022-10-04T09:48:36.283Z,4576.00
2022-10-04T09:49:36.296Z,4520.00
2022-10-04T09:50:36.262Z,4508.00
2022-10-04T09:51:36.263Z,4604.00
2022-10-04T09:52:36.259Z,4544.00
2022-10-04T09:53:36.231Z,4464.00
2022-10-04T09:54:37.523Z,4328.00
2022-10-04T09:55:36.214Z,4340.00
2022-10-04T09:56:36.208Z,4308.00
2022-10-04T09:57:36.238Z,4404.00
2022-10-04T09:58:36.179Z,4344.00
2022-10-04T09:59:36.166Z,4296.00
2022-10-04T10:00:36.181Z,4296.00
2022-10-04T10:01:36.258Z,4236.00
2022-10-04T10:02:36.199Z,4188.00
2022-10-04T10:03:36.124Z,4096.00
2022-10-04T10:04:36.114Z,4064.00
2022-10-04T10:05:36.106Z,4060.00
2022-10-04T10:06:36.106Z,4112.00
2022-10-04T10:07:36.084Z,4260.00
2022-10-04T10:08:36.077Z,4272.00
2022-10-04T10:09:36.063Z,4480.00
2022-10-04T10:10:36.074Z,4572.00
2022-10-04T10:11:36.039Z,4672.00
2022-10-04T10:12:36.038Z,4780.00
2022-10-04T10:13:36.017Z,4812.00
2022-10-04T10:14:36.006Z,4888.00
2022-10-04T10:15:36.039Z,4956.00
2022-10-04T10:16:35.990Z,5168.00
2022-10-04T10:17:35.989Z,5276.00
2022-10-04T10:18:36.015Z,5480.00
2022-10-04T10:19:35.953Z,5680.00
2022-10-04T10:20:35.944Z,5800.00
2022-10-04T10:21:35.936Z,5912.00
2022-10-04T10:22:35.945Z,5984.00
2022-10-04T10:23:35.913Z,6088.00
2022-10-04T10:24:35.902Z,6028.00
2022-10-04T10:25:35.891Z,6172.00
2022-10-04T10:26:35.881Z,6200.00
2022-10-04T10:27:35.883Z,6252.00
2022-10-04T10:28:35.948Z,6400.00
2022-10-04T10:29:35.855Z,6456.00
2022-10-04T10:30:35.843Z,6376.00
2022-10-04T10:31:35.886Z,6576.00
2022-10-04T10:32:35.826Z,6676.00
2022-10-04T10:33:35.805Z,6772.00
2022-10-04T10:34:35.827Z,6840.00
2022-10-04T10:35:35.787Z,6972.00
2022-10-04T10:36:35.783Z,7004.00
2022-10-04T10:37:35.782Z,7104.00
2022-10-04T10:38:35.757Z,7164.00
2022-10-04T10:39:35.744Z,7360.00
2022-10-04T10:40:35.774Z,7508.00
2022-10-04T10:41:35.720Z,7664.00
2022-10-04T10:42:35.716Z,7916.00
2022-10-04T10:43:36.703Z,7952.00
2022-10-04T10:44:35.693Z,8176.00
2022-10-04T10:45:35.679Z,8300.00
2022-10-04T10:46:35.724Z,8400.00
2022-10-04T10:47:35.671Z,8184.00
2022-10-04T10:48:35.654Z,8468.00
2022-10-04T10:49:35.639Z,8596.00
2022-10-04T10:50:35.633Z,8684.00
2022-10-04T10:51:35.632Z,8292.00
2022-10-04T10:52:35.607Z,8440.00
2022-10-04T10:53:35.599Z,8664.00
2022-10-04T10:54:35.597Z,9036.00
2022-10-04T10:55:35.582Z,8912.00
2022-10-04T10:56:35.583Z,8864.00
2022-10-04T10:57:35.583Z,8492.00
2022-10-04T10:58:35.551Z,8480.00
2022-10-04T10:59:35.548Z,8272.00
2022-10-04T11:00:35.530Z,8232.00
2022-10-04T11:01:35.666Z,8012.00
2022-10-04T11:02:48.648Z,8052.00
2022-10-04T11:03:37.621Z,7784.00
2022-10-04T11:04:35.489Z,7496.00
2022-10-04T11:05:35.489Z,7120.00
2022-10-04T11:06:35.496Z,7308.00
2022-10-04T11:07:35.474Z,7164.00
2022-10-04T11:08:35.448Z,7064.00
2022-10-04T11:09:35.436Z,7428.00
2022-10-04T11:10:35.455Z,7204.00
2022-10-04T11:11:35.446Z,6912.00
2022-10-04T11:12:35.405Z,6692.00
2022-10-04T11:13:35.399Z,6888.00
2022-10-04T11:14:35.392Z,6500.00
2022-10-04T11:15:35.381Z,6128.00
2022-10-04T11:16:35.384Z,6036.00
2022-10-04T11:17:35.356Z,5368.00
2022-10-04T11:18:35.348Z,5876.00
2022-10-04T11:19:35.337Z,5804.00
2022-10-04T11:20:35.331Z,5576.00
2022-10-04T11:21:35.336Z,5384.00
2022-10-04T11:22:38.303Z,5276.00
2022-10-04T11:23:36.304Z,5224.00
2022-10-04T11:24:35.293Z,5124.00
2022-10-04T11:25:35.280Z,5072.00
2022-10-04T11:26:35.312Z,4996.00
2022-10-04T11:27:35.259Z,4876.00
2022-10-04T11:28:35.325Z,4816.00
2022-10-04T11:29:35.243Z,4720.00
2022-10-04T11:30:35.229Z,4700.00
2022-10-04T11:31:35.284Z,4720.00
2022-10-04T11:32:35.212Z,4696.00
2022-10-04T11:33:35.200Z,4504.00
2022-10-04T11:34:35.192Z,4512.00
2022-10-04T11:35:35.179Z,4444.00
2022-10-04T11:36:35.180Z,4408.00
2022-10-04T11:37:35.154Z,4320.00
2022-10-04T11:38:35.147Z,4312.00
2022-10-04T11:39:35.135Z,4248.00
2022-10-04T11:40:35.125Z,4228.00
2022-10-04T11:41:35.135Z,4172.00
2022-10-04T11:42:35.107Z,4200.00
2022-10-04T11:43:35.094Z,4136.00
2022-10-04T11:44:35.100Z,4052.00
2022-10-04T11:45:35.074Z,4052.00
2022-10-04T11:46:35.122Z,4016.00
2022-10-04T11:47:35.051Z,3992.00
2022-10-04T11:48:35.064Z,3992.00
2022-10-04T11:49:35.038Z,3952.00
2022-10-04T11:50:35.021Z,3932.00
2022-10-04T11:51:35.015Z,3884.00
2022-10-04T11:52:35.014Z,3880.00
2022-10-04T11:53:34.998Z,3808.00
2022-10-04T11:54:34.977Z,3756.00
2022-10-04T11:55:34.977Z,3764.00
2022-10-04T11:56:34.976Z,3724.00
2022-10-04T11:57:34.974Z,3688.00
2022-10-04T11:58:34.934Z,3692.00
2022-10-04T11:59:34.925Z,3636.00
2022-10-04T12:00:34.916Z,3596.00
2022-10-04T12:01:34.909Z,3584.00
2022-10-04T12:02:34.906Z,3568.00
2022-10-04T12:03:34.930Z,3580.00
2022-10-04T12:04:34.912Z,3564.00
2022-10-04T12:05:34.865Z,3488.00
2022-10-04T12:06:34.867Z,3452.00
2022-10-04T12:07:35.414Z,3416.00
2022-10-04T12:08:34.853Z,3384.00
2022-10-04T12:09:34.827Z,3476.00
2022-10-04T12:10:34.818Z,3180.00
2022-10-04T12:11:34.817Z,3596.00
2022-10-04T12:12:34.820Z,2740.00
2022-10-04T12:13:34.781Z,3404.00
2022-10-04T12:14:34.770Z,2764.00
2022-10-04T12:15:34.770Z,2796.00
2022-10-04T12:16:34.842Z,2572.00
2022-10-04T12:17:34.755Z,2960.00
2022-10-04T12:18:34.734Z,3204.00
2022-10-04T12:19:34.721Z,3208.00
2022-10-04T12:20:34.713Z,3200.00
2022-10-04T12:21:34.708Z,3184.00
2022-10-04T12:22:34.701Z,3164.00
2022-10-04T12:23:34.730Z,3148.00
2022-10-04T12:24:34.675Z,3100.00
2022-10-04T12:25:34.662Z,3084.00
2022-10-04T12:26:34.654Z,3060.00
2022-10-04T12:27:34.662Z,3016.00
2022-10-04T12:28:34.768Z,2972.00
2022-10-04T12:29:34.618Z,2948.00
2022-10-04T12:30:34.611Z,2932.00
2022-10-04T12:31:34.666Z,2916.00
2022-10-04T12:32:34.603Z,2900.00
2022-10-04T12:33:34.592Z,2880.00
2022-10-04T12:34:34.574Z,2868.00
2022-10-04T12:35:34.559Z,2852.00
2022-10-04T12:36:34.548Z,2832.00
2022-10-04T12:37:34.562Z,2808.00